WABB/BIK METAR and TAF weather

Enter ICAO airport designator
Station Type Date Time Source
WABB METAR 2020/12/09 02:30 UTC NOAA

WABB 090230Z 34007KT 160V340 7000 -RA SCT018 BKN100 28/26 Q1010 NOSIG


Station Type Date Time Source
WABB Decoded METAR 2020/12/09 02:30 UTC NOAA

Biak / Mokmer, Indonesia (WABB) 01-11S 136-07E 11M
Dec 08, 2020 - 09:30 PM EST / 2020.12.09 0230 UTC
Wind: from the NNW (340 degrees) at 8 MPH (7 KT) (direction variable):0
Visibility: 4 mile(s):0
Sky conditions: mostly cloudy
Weather: light rain
Temperature: 82 F (28 C)
Dew Point: 78 F (26 C)
Relative Humidity: 88%
Pressure (altimeter): 29.83 in. Hg (1010 hPa)
ob: WABB 090230Z 34007KT 160V340 7000 -RA SCT018 BKN100 28/26 Q1010 NOSIG
cycle: 2

Station Type Date Time Source
WABB TAF 2021/01/15 20:55 UTC NOAA

TAF
AMD WABB 152000Z 1520/1700 31004KT 9999 SCT018
TEMPO 1520/1523 5000 RA FEW017CB
BECMG 1522/1600 24006KT

Example: see airport list